This is the latest recevied weather packets stored in our database for station/object N4CRH-13. If no packets are shown the sender has not sent any weather packets the latest 10 day(s).
| Time | Temp. | Humidity | Pressure | Rain* | Wind** | Luminosity | Snow |
|---|---|---|---|---|---|---|---|
| 1777434223 | 4.44° C | 68% | 1298.4 hPa | 0 mm | - | 0 W/m² | - |
| 1777433919 | 4.44° C | 68% | 1298.4 hPa | 0 mm | - | 0 W/m² | - |
| 1777433617 | 4.44° C | 70% | 1298.4 hPa | 0 mm | - | 0 W/m² | - |
| 1777433317 | 4.44° C | 70% | 1298.2 hPa | 0 mm | - | 0 W/m² | - |
| 1777433014 | 3.89° C | 70% | 1298.1 hPa | 0 mm | - | 0 W/m² | - |
| 1777432709 | 3.89° C | 71% | 1298.1 hPa | 0 mm | - | 0 W/m² | - |
| 1777432405 | 3.89° C | 72% | 1297.9 hPa | 0 mm | - | 0 W/m² | - |
| 1777432101 | 3.89° C | 71% | 1297.9 hPa | 0 mm | - | 0 W/m² | - |
| 1777431795 | 3.89° C | 70% | 1297.9 hPa | 0 mm | - | 0 W/m² | - |
| 1777431492 | 3.89° C | 72% | 1297.6 hPa | 0 mm | - | 0 W/m² | - |
| 1777431188 | 3.89° C | 71% | 1297.6 hPa | 0 mm | - | 0 W/m² | - |
| 1777430884 | 3.89° C | 72% | 1297.5 hPa | 0 mm | - | 0 W/m² | - |
| 1777430580 | 4.44° C | 71% | 1297.3 hPa | 0 mm | - | 0 W/m² | - |
| 1777430276 | 4.44° C | 72% | 1297.3 hPa | 0 mm | - | 0 W/m² | - |
| 1777429970 | 4.44° C | 70% | 1297.3 hPa | 0 mm | - | 0 W/m² | - |
| 1777429668 | 4.44° C | 71% | 1297 hPa | 0 mm | - | 0 W/m² | - |
| 1777429364 | 4.44° C | 71% | 1297 hPa | 0 mm | - | 0 W/m² | - |
| 1777429059 | 4.44° C | 71% | 1297 hPa | 0 mm | - | 0 W/m² | - |
| 1777428756 | 4.44° C | 72% | 1296.8 hPa | 0 mm | - | 0 W/m² | - |
| 1777428451 | 5° C | 68% | 1296.5 hPa | 0 mm | - | 0 W/m² | - |
| 1777428148 | 6.11° C | 65% | 1296.8 hPa | 0 mm | - | 0 W/m² | - |
| 1777427843 | 6.11° C | 63% | 1296.8 hPa | 0 mm | - | 1 W/m² | - |
| 1777427540 | 6.67° C | 62% | 1296.8 hPa | 0 mm | - | 2 W/m² | - |
| 1777427236 | 6.67° C | 60% | 1296.5 hPa | 0 mm | - | 4 W/m² | - |
| 1777426934 | 7.22° C | 60% | 1296.4 hPa | 0 mm | - | 5 W/m² | - |
* Rain latest hour (hover to see other rain measurements)
** Current wind speed in m/s (hover to see current wind gust speed)